CDT,Max TemperatureF,Mean TemperatureF,Min TemperatureF,Max Dew PointF,MeanDew PointF,Min DewpointF,Max Humidity, Mean Humidity, Min Humidity, Max Sea Level PressureIn, Mean Sea Level PressureIn, Min Sea Level PressureIn, Max VisibilityMiles, Mean VisibilityMiles, Min VisibilityMiles, Max Wind SpeedMPH, Mean Wind SpeedMPH, Max Gust SpeedMPH,PrecipitationIn, CloudCover, Events, WindDirDegrees
2013-3-1,23,14,6,18,11,1,86,79,68,30.36,30.31,30.22,10,10,10,13,10,,0.00,4,,328
2013-3-2,28,16,3,21,11,-2,93,75,47,30.33,30.22,30.05,10,10,1,13,7,,0.00,4,,169
2013-3-3,33,25,17,25,20,14,86,78,69,30.05,29.91,29.80,10,9,2,22,13,26,0.00,2,,132
2013-3-4,30,27,24,27,24,19,93,86,69,29.93,29.84,29.76,10,6,1,20,15,28,0.01,8,,139
2013-3-5,28,24,19,21,19,16,86,78,69,30.35,30.12,29.91,10,6,1,30,16,37,0.00,8,,324
2013-3-6,24,20,17,18,15,12,86,80,69,30.42,30.36,30.28,10,10,5,17,10,21,0.00,8,,313
2013-3-7,30,24,17,21,17,12,86,77,69,30.29,30.21,30.13,10,10,7,23,14,28,0.00,3,,139
2013-3-8,37,24,12,30,22,9,93,82,65,30.22,30.13,29.96,7,4,2,15,7,18,0.07,2,,112
2013-3-9,35,32,28,34,30,21,100,89,74,29.94,29.77,29.65,10,3,0,26,11,36,0.54,8,,48
2013-3-10,28,22,17,23,17,10,86,78,73,30.02,29.96,29.85,10,9,5,31,25,38,0.00,8,,343
2013-3-11,28,19,10,21,12,3,80,72,59,29.97,29.87,29.81,10,10,10,22,16,28,0.00,6,,320
2013-3-12,30,24,19,23,16,12,86,72,64,30.26,30.04,29.86,10,8,2,28,19,36,0.00,6,,317
2013-3-13,33,22,12,25,15,7,86,72,59,30.38,30.29,30.11,10,10,10,16,10,21,0.00,2,,236
2013-3-14,37,32,28,32,27,21,87,76,60,30.10,30.04,29.98,10,9,5,20,9,23,0.00,1,,206
2013-3-15,33,30,26,32,28,23,93,87,80,30.00,29.89,29.78,10,4,1,20,9,23,0.00,7,,358
2013-3-16,24,17,10,21,9,3,93,78,67,30.25,30.14,29.92,10,9,3,23,18,32,0.00,5,,336
2013-3-17,32,19,6,28,11,-2,87,70,55,30.24,29.98,29.62,10,9,0,29,14,37,0.00,6,,123
2013-3-18,35,22,10,30,11,1,87,68,58,29.96,29.74,29.58,10,10,3,39,27,47,0.00,4,,283
2013-3-19,19,12,6,9,3,0,73,64,54,30.30,30.14,29.96,10,10,4,25,18,30,0.00,3,,317
2013-3-20,19,12,6,7,3,-2,79,64,49,30.32,30.25,30.15,10,10,10,23,17,31,0.00,0,,323
2013-3-21,23,13,3,12,6,0,85,71,54,30.14,30.06,30.01,10,10,10,10,6,,0.00,0,,24
2013-3-22,26,18,10,19,12,5,93,74,59,30.09,30.05,30.02,10,10,10,9,3,,0.00,1,,11
2013-3-23,26,24,21,18,15,12,86,71,64,30.16,30.13,30.07,10,10,10,16,8,,0.00,4,,337
2013-3-24,28,24,19,25,18,12,86,79,69,30.14,30.07,30.02,10,7,1,25,14,29,0.00,6,,332
2013-3-25,30,26,21,21,19,16,86,75,64,30.30,30.19,30.09,10,10,3,24,19,29,0.00,6,,335
2013-3-26,30,22,15,23,16,10,86,76,64,30.32,30.29,30.24,10,10,10,14,10,,0.00,0,,335
2013-3-27,42,30,19,30,24,16,93,75,53,30.28,30.26,30.22,10,9,0,14,6,,0.00,1,,120
2013-3-28,53,42,30,39,32,27,87,73,54,30.26,30.21,30.15,10,10,5,15,9,17,0.00,3,,155
2013-3-29,60,46,33,43,37,30,87,71,51,30.21,30.11,29.93,10,9,4,18,7,23,0.00,4,,160
2013-3-30,51,42,33,41,37,28,87,75,62,29.95,29.91,29.85,10,7,0,24,16,26,0.00,4,,299
2013-3-31,35,30,23,30,22,14,87,69,52,30.17,29.99,29.87,10,9,1,30,17,36,0.00,4,,324